Time;durP1;ratioP1;P1;durP2;ratioP2;P2;SDS_P1;SDS_P2;PMS_P1;PMS_P2;Temp;Humidity;BMP_temperature;BMP_pressure;BME280_temperature;BME280_humidity;BME280_pressure;Samples;Min_cycle;Max_cycle;Signal;HPM_P1;HPM_P2
2022/06/25 00:05:29;;;;;;;;;;;23.70;64.30;;;;;;20807571;28;19982;-80
2022/06/25 00:15:29;;;;;;;;;;;23.70;64.40;;;;;;20791351;28;19917;-81
2022/06/25 00:25:30;;;;;;;;;;;23.70;64.60;;;;;;20805904;28;20322;-82
2022/06/25 00:46:01;;;;;;;;;;;23.60;64.90;;;;;;21039616;23;20359;-80
2022/06/25 00:56:03;;;;;;;;;;;23.50;65.00;;;;;;20767177;28;19913;-80
2022/06/25 01:06:04;;;;;;;;;;;23.50;65.00;;;;;;20742596;28;19925;-81
2022/06/25 01:16:05;;;;;;;;;;;23.40;65.20;;;;;;20812004;28;20016;-79
2022/06/25 01:26:05;;;;;;;;;;;23.40;65.20;;;;;;20790559;28;19928;-81
2022/06/25 01:36:06;;;;;;;;;;;23.40;65.20;;;;;;20790900;28;20282;-80
2022/06/25 01:46:06;;;;;;;;;;;23.40;65.20;;;;;;20798254;28;19921;-81
2022/06/25 01:56:07;;;;;;;;;;;23.30;65.00;;;;;;20778386;28;19913;-79
2022/06/25 02:06:08;;;;;;;;;;;23.30;65.00;;;;;;20777477;28;19967;-80
2022/06/25 02:16:09;;;;;;;;;;;23.30;65.10;;;;;;20755157;28;20321;-80
2022/06/25 02:26:10;;;;;;;;;;;23.20;65.00;;;;;;20813046;28;19925;-79
2022/06/25 02:36:10;;;;;;;;;;;23.20;65.10;;;;;;20779429;28;19924;-78
2022/06/25 02:46:11;;;;;;;;;;;23.20;65.20;;;;;;20765825;28;19921;-79
2022/06/25 03:06:31;;;;;;;;;;;23.10;65.30;;;;;;20734564;28;20394;-79
2022/06/25 03:16:32;;;;;;;;;;;23.20;65.30;;;;;;20785771;28;19953;-78
2022/06/25 03:26:34;;;;;;;;;;;23.10;65.00;;;;;;20778651;28;19921;-80
2022/06/25 03:36:35;;;;;;;;;;;23.10;64.90;;;;;;20795103;28;20294;-82
2022/06/25 03:46:37;;;;;;;;;;;23.10;64.90;;;;;;20744051;28;20326;-81
2022/06/25 03:56:38;;;;;;;;;;;23.10;65.00;;;;;;20742964;28;19913;-80
2022/06/25 04:06:40;;;;;;;;;;;23.10;65.10;;;;;;20753515;28;19925;-80
2022/06/25 04:16:41;;;;;;;;;;;23.10;64.90;;;;;;20724409;28;19913;-80
2022/06/25 04:26:47;;;;;;;;;;;23.10;64.90;;;;;;20776196;28;19921;-80
2022/06/25 04:36:47;;;;;;;;;;;23.10;64.80;;;;;;20779024;28;19913;-79
2022/06/25 04:46:56;;;;;;;;;;;23.10;64.90;;;;;;20759091;28;19929;-80
2022/06/25 04:57:07;;;;;;;;;;;23.10;65.10;;;;;;20709281;28;19920;-79
2022/06/25 05:07:15;;;;;;;;;;;23.10;65.50;;;;;;20758015;28;20260;-79
2022/06/25 05:17:16;;;;;;;;;;;23.10;65.80;;;;;;20786033;28;20406;-80
2022/06/25 05:27:17;;;;;;;;;;;23.10;65.80;;;;;;20763044;28;19922;-79
2022/06/25 05:37:18;;;;;;;;;;;23.10;65.80;;;;;;20723640;28;19917;-81
2022/06/25 05:47:18;;;;;;;;;;;23.10;65.90;;;;;;20758876;28;20296;-79
2022/06/25 05:57:19;;;;;;;;;;;23.20;65.80;;;;;;20719029;28;19914;-79
2022/06/25 06:07:20;;;;;;;;;;;23.20;65.70;;;;;;20715389;28;19944;-82
2022/06/25 06:17:21;;;;;;;;;;;23.20;65.80;;;;;;20797135;28;19917;-79
2022/06/25 06:27:21;;;;;;;;;;;23.20;65.80;;;;;;20747923;28;19968;-80
2022/06/25 06:37:22;;;;;;;;;;;23.20;66.50;;;;;;20764651;28;19917;-82
2022/06/25 06:47:22;;;;;;;;;;;23.20;65.70;;;;;;20758560;28;19927;-77
2022/06/25 06:57:23;;;;;;;;;;;23.20;65.60;;;;;;20741715;28;19913;-82
2022/06/25 07:07:24;;;;;;;;;;;23.30;65.50;;;;;;20746823;28;19925;-85
2022/06/25 07:17:24;;;;;;;;;;;23.30;65.30;;;;;;20758424;28;19952;-78
2022/06/25 07:27:25;;;;;;;;;;;23.30;65.10;;;;;;20740626;28;20272;-74
2022/06/25 07:37:25;;;;;;;;;;;23.40;65.00;;;;;;20751515;28;19917;-75
2022/06/25 07:47:26;;;;;;;;;;;23.40;64.80;;;;;;20775698;28;19921;-73
2022/06/25 07:57:26;;;;;;;;;;;23.40;64.60;;;;;;20756153;28;19920;-74
2022/06/25 08:07:27;;;;;;;;;;;23.40;64.50;;;;;;20778566;28;20012;-74
2022/06/25 08:17:27;;;;;;;;;;;23.50;64.40;;;;;;20754063;28;19963;-74
2022/06/25 08:27:28;;;;;;;;;;;23.50;64.40;;;;;;20747962;28;19922;-74
2022/06/25 08:37:28;;;;;;;;;;;23.50;64.30;;;;;;20764889;28;19917;-75
2022/06/25 08:47:29;;;;;;;;;;;23.50;64.20;;;;;;20770779;28;19988;-75
2022/06/25 08:57:29;;;;;;;;;;;23.50;64.30;;;;;;20769334;28;19917;-80
2022/06/25 09:07:30;;;;;;;;;;;23.60;64.30;;;;;;20766123;28;19925;-77
2022/06/25 09:17:30;;;;;;;;;;;23.60;64.20;;;;;;20778336;28;20375;-74
2022/06/25 09:27:35;;;;;;;;;;;23.60;64.00;;;;;;20783484;28;19928;-77
2022/06/25 09:37:36;;;;;;;;;;;23.60;63.80;;;;;;20755121;28;19917;-78
2022/06/25 09:47:37;;;;;;;;;;;23.60;63.70;;;;;;20759328;28;19921;-78
2022/06/25 09:57:38;;;;;;;;;;;23.60;63.60;;;;;;20750796;28;19918;-79
2022/06/25 10:17:59;;;;;;;;;;;23.60;63.20;;;;;;20750193;28;20007;-74
2022/06/25 10:28:10;;;;;;;;;;;23.70;63.10;;;;;;20748476;28;19940;-75
2022/06/25 10:38:11;;;;;;;;;;;23.70;62.70;;;;;;20738084;28;20379;-76
2022/06/25 10:48:12;;;;;;;;;;;23.70;62.50;;;;;;20759019;28;20004;-73
2022/06/25 10:58:13;;;;;;;;;;;23.70;62.10;;;;;;20753393;28;22373;-74
2022/06/25 11:08:13;;;;;;;;;;;23.70;62.00;;;;;;20749054;28;19983;-77
2022/06/25 11:18:14;;;;;;;;;;;23.70;62.00;;;;;;20740547;28;20406;-74
2022/06/25 11:38:34;;;;;;;;;;;23.80;61.60;;;;;;20754083;28;19925;-78
2022/06/25 11:48:34;;;;;;;;;;;23.80;61.40;;;;;;20743461;28;19913;-77
2022/06/25 11:58:35;;;;;;;;;;;23.80;61.10;;;;;;20780777;28;19927;-82
2022/06/25 12:08:36;;;;;;;;;;;23.70;61.00;;;;;;20748721;28;19952;-78
2022/06/25 12:18:41;;;;;;;;;;;23.90;61.00;;;;;;20776674;28;19943;-80
2022/06/25 12:28:42;;;;;;;;;;;23.80;60.70;;;;;;20733993;28;19920;-78
2022/06/25 12:38:42;;;;;;;;;;;23.80;60.70;;;;;;20777471;28;19921;-78
2022/06/25 12:48:43;;;;;;;;;;;23.90;60.40;;;;;;20769032;28;19913;-79
2022/06/25 12:58:43;;;;;;;;;;;24.00;60.30;;;;;;20780788;28;20550;-79
2022/06/25 13:08:44;;;;;;;;;;;23.90;60.30;;;;;;20754268;28;19956;-78
2022/06/25 13:18:44;;;;;;;;;;;23.90;60.30;;;;;;20780598;28;20391;-79
2022/06/25 13:28:45;;;;;;;;;;;23.90;60.30;;;;;;20767127;28;19913;-76
2022/06/25 13:38:45;;;;;;;;;;;23.90;60.30;;;;;;20782859;28;19921;-76
2022/06/25 13:48:46;;;;;;;;;;;24.00;60.50;;;;;;20781370;28;19960;-79
2022/06/25 13:58:47;;;;;;;;;;;24.00;60.50;;;;;;20784448;28;20007;-77
2022/06/25 14:08:47;;;;;;;;;;;24.00;60.40;;;;;;20789359;28;19920;-80
2022/06/25 14:18:48;;;;;;;;;;;24.10;60.40;;;;;;20734813;28;19944;-80
2022/06/25 14:28:48;;;;;;;;;;;24.20;60.60;;;;;;20728361;28;19936;-82
2022/06/25 14:49:08;;;;;;;;;;;24.40;59.60;;;;;;20761481;28;19926;-82
2022/06/25 14:59:10;;;;;;;;;;;24.50;59.40;;;;;;20757146;28;21805;-81
2022/06/25 15:09:11;;;;;;;;;;;24.50;59.30;;;;;;20802450;28;20322;-81
2022/06/25 15:19:11;;;;;;;;;;;24.50;59.10;;;;;;20761524;28;20559;-81
2022/06/25 15:29:12;;;;;;;;;;;24.50;59.10;;;;;;20776751;28;19920;-82
2022/06/25 15:39:12;;;;;;;;;;;24.50;59.10;;;;;;20785633;28;20367;-81
2022/06/25 15:49:13;;;;;;;;;;;24.50;59.00;;;;;;20757552;28;19957;-80
2022/06/25 15:59:29;;;;;;;;;;;24.60;59.00;;;;;;20754699;28;20335;-82
2022/06/25 16:09:30;;;;;;;;;;;24.50;58.90;;;;;;20770664;28;19913;-80
2022/06/25 16:19:31;;;;;;;;;;;24.60;58.40;;;;;;20775803;28;19921;-81
2022/06/25 16:29:32;;;;;;;;;;;24.60;58.40;;;;;;20765894;28;19914;-81
2022/06/25 17:09:59;;;;;;;5.60;0.85;;;24.20;56.50;;;;;;21143838;27;20338;-77
2022/06/25 17:19:59;;;;;;;3.88;0.73;;;24.20;58.20;;;;;;21123942;28;20040;-74
2022/06/25 17:30:00;;;;;;;4.23;0.90;;;24.30;58.70;;;;;;21091467;28;20052;-77
2022/06/25 17:40:01;;;;;;;2.03;0.70;;;24.50;58.40;;;;;;21125527;28;20036;-79
2022/06/25 17:50:07;;;;;;;2.83;0.50;;;24.60;58.00;;;;;;21128196;27;20034;-81
2022/06/25 18:00:11;;;;;;;2.08;0.60;;;24.70;58.00;;;;;;21126879;28;20282;-81
2022/06/25 18:10:14;;;;;;;3.37;0.80;;;24.60;58.20;;;;;;21087389;28;20039;-80
2022/06/25 18:20:17;;;;;;;1.88;0.63;;;24.60;58.20;;;;;;21073821;28;20110;-80
2022/06/25 18:30:18;;;;;;;3.53;0.60;;;24.50;59.00;;;;;;21075019;28;20035;-80
2022/06/25 18:40:19;;;;;;;4.15;0.40;;;24.50;58.50;;;;;;21034263;28;20529;-78
2022/06/25 18:50:20;;;;;;;0.40;0.32;;;24.50;58.60;;;;;;21074849;28;20031;-80
2022/06/25 19:00:21;;;;;;;1.63;0.60;;;24.50;58.80;;;;;;21064558;28;20067;-81
2022/06/25 19:10:21;;;;;;;0.52;0.40;;;24.40;58.80;;;;;;21047586;28;20471;-79
2022/06/25 19:20:22;;;;;;;0.53;0.40;;;24.40;58.90;;;;;;21046984;28;20036;-79
2022/06/25 19:30:22;;;;;;;0.53;0.50;;;24.40;59.00;;;;;;21048029;28;20347;-79
2022/06/25 19:40:23;;;;;;;1.25;0.57;;;24.40;59.10;;;;;;21061027;28;20294;-82
2022/06/25 19:50:24;;;;;;;1.35;0.55;;;24.30;59.30;;;;;;21043192;28;20628;-79
2022/06/25 20:00:24;;;;;;;1.03;0.50;;;24.30;59.40;;;;;;21075010;28;20386;-77
2022/06/25 20:10:25;;;;;;;2.03;0.40;;;24.40;59.60;;;;;;21057165;28;20763;-77
2022/06/25 20:20:25;;;;;;;0.60;0.40;;;24.30;59.70;;;;;;21077823;28;20531;-76
2022/06/25 20:30:26;;;;;;;2.67;0.50;;;24.30;59.80;;;;;;21059687;28;20036;-80
2022/06/25 20:40:28;;;;;;;2.08;0.70;;;24.20;60.10;;;;;;21023499;28;20043;-80
2022/06/25 20:50:28;;;;;;;1.58;0.60;;;24.30;60.30;;;;;;21034475;28;20505;-79
2022/06/25 21:00:29;;;;;;;0.82;0.73;;;24.30;60.60;;;;;;20999446;28;20036;-80
2022/06/25 21:10:29;;;;;;;3.30;1.08;;;24.20;60.80;;;;;;21075137;28;20068;-80
2022/06/25 21:20:31;;;;;;;3.60;0.90;;;24.20;61.20;;;;;;21056432;28;20394;-80
2022/06/25 21:30:32;;;;;;;1.75;1.10;;;24.20;61.30;;;;;;21073718;28;20270;-79
2022/06/25 21:40:34;;;;;;;1.25;1.05;;;24.20;61.40;;;;;;21056116;28;20059;-80
2022/06/25 21:50:34;;;;;;;1.35;1.25;;;24.10;61.80;;;;;;21062223;28;20109;-80
2022/06/25 22:00:35;;;;;;;1.35;1.25;;;24.10;62.00;;;;;;21055523;28;20059;-80
2022/06/25 22:10:36;;;;;;;1.45;1.30;;;24.10;62.20;;;;;;21088056;28;20038;-80
2022/06/25 22:20:48;;;;;;;2.30;1.60;;;24.10;62.50;;;;;;21052421;28;20040;-79
2022/06/25 22:30:49;;;;;;;2.40;2.17;;;24.00;62.60;;;;;;21056530;28;20028;-79
2022/06/25 22:40:49;;;;;;;2.75;1.60;;;24.00;62.90;;;;;;21071735;28;20550;-80
2022/06/25 22:50:50;;;;;;;2.25;2.05;;;23.90;63.10;;;;;;21049982;28;20145;-79
2022/06/25 23:00:51;;;;;;;2.28;1.95;;;23.90;63.20;;;;;;21084205;28;20036;-79
2022/06/25 23:10:51;;;;;;;2.20;1.85;;;23.90;63.30;;;;;;21049032;28;20034;-80
2022/06/25 23:20:52;;;;;;;2.70;1.90;;;23.90;63.50;;;;;;21064920;28;20040;-79
2022/06/25 23:30:53;;;;;;;2.35;2.00;;;23.90;63.50;;;;;;21047973;28;20063;-79
2022/06/25 23:40:53;;;;;;;2.90;2.20;;;23.90;63.60;;;;;;21041095;28;20049;-80
2022/06/25 23:50:54;;;;;;;4.00;2.17;;;23.80;63.60;;;;;;21046788;28;20024;-80
